Time;durP1;ratioP1;P1;durP2;ratioP2;P2;SDS_P1;SDS_P2;PMS_P1;PMS_P2;Temp;Humidity;BMP_temperature;BMP_pressure;BME280_temperature;BME280_humidity;BME280_pressure;Samples;Min_cycle;Max_cycle;Signal;HPM_P1;HPM_P2
2022/12/04 03:01:29;;;;;;;29.67;25.83;;;2.50;99.90;;;;;;5490327;23;20669;-79
2022/12/04 03:04:00;;;;;;;27.53;24.33;;;2.50;99.90;;;;;;4904347;29;20437;-78
2022/12/04 03:06:31;;;;;;;29.27;25.87;;;2.60;99.90;;;;;;4896342;29;20210;-79
2022/12/04 03:09:03;;;;;;;30.67;25.67;;;2.60;99.90;;;;;;4903835;29;20197;-78
2022/12/04 03:11:33;;;;;;;27.60;23.13;;;2.60;99.90;;;;;;4880071;29;20467;-79
2022/12/04 03:14:07;;;;;;;27.20;23.83;;;2.60;99.90;;;;;;4892963;29;20223;-78
2022/12/04 03:16:39;;;;;;;29.13;25.23;;;2.60;99.90;;;;;;4879127;29;20201;-78
2022/12/04 03:19:09;;;;;;;24.90;22.40;;;2.60;99.90;;;;;;4888603;29;20454;-79
2022/12/04 03:21:39;;;;;;;28.50;24.17;;;2.60;99.90;;;;;;4889751;29;20753;-79
2022/12/04 03:24:12;;;;;;;32.47;25.60;;;2.60;99.90;;;;;;4889927;29;20454;-78
2022/12/04 03:26:42;;;;;;;26.57;23.70;;;2.50;99.90;;;;;;4883193;29;20816;-78
2022/12/04 03:29:13;;;;;;;28.17;24.37;;;2.50;99.90;;;;;;4889088;29;20204;-78
2022/12/04 03:31:46;;;;;;;26.13;23.37;;;2.50;99.90;;;;;;4887739;29;20277;-77
2022/12/04 03:34:16;;;;;;;26.23;23.10;;;2.50;99.90;;;;;;4893019;29;20488;-78
2022/12/04 03:36:49;;;;;;;26.40;23.57;;;2.50;99.90;;;;;;4889483;29;20825;-78
2022/12/04 03:39:21;;;;;;;27.40;23.67;;;2.50;99.90;;;;;;4884866;29;20197;-79
2022/12/04 03:41:57;;;;;;;28.13;23.73;;;2.40;99.90;;;;;;4888637;29;20466;-79
2022/12/04 03:44:32;;;;;;;27.57;24.63;;;2.40;99.90;;;;;;4890578;29;20456;-79
2022/12/04 03:47:06;;;;;;;24.83;22.33;;;2.50;99.90;;;;;;4885590;29;20433;-78
2022/12/04 03:49:40;;;;;;;26.40;23.50;;;2.50;99.90;;;;;;4893268;29;20481;-79
2022/12/04 03:52:12;;;;;;;28.67;24.33;;;2.50;99.90;;;;;;4886435;29;20279;-78
2022/12/04 03:54:46;;;;;;;25.50;22.90;;;2.50;99.90;;;;;;4886079;29;20231;-78
2022/12/04 03:57:16;;;;;;;26.47;23.67;;;2.40;99.90;;;;;;4889032;29;20217;-78
2022/12/04 03:59:48;;;;;;;29.90;24.57;;;2.50;99.90;;;;;;4888268;29;20204;-79
2022/12/04 04:02:20;;;;;;;30.63;24.23;;;2.40;99.90;;;;;;4885658;29;20237;-79
2022/12/04 04:04:51;;;;;;;26.63;22.53;;;2.40;99.90;;;;;;4888481;29;20438;-77
2022/12/04 04:07:22;;;;;;;26.40;23.30;;;2.40;99.90;;;;;;4889755;29;20442;-79
2022/12/04 04:09:53;;;;;;;27.40;24.50;;;2.40;99.90;;;;;;4886565;29;20834;-78
2022/12/04 04:12:24;;;;;;;26.37;23.67;;;2.50;99.90;;;;;;4888828;29;20236;-77
2022/12/04 04:26:14;;;;;;;27.10;23.30;;;2.50;99.90;;;;;;4874128;29;20200;-77
2022/12/04 04:28:42;;;;;;;25.47;22.03;;;2.50;99.90;;;;;;4889301;29;20457;-76
2022/12/04 04:31:19;;;;;;;25.77;22.97;;;2.60;99.90;;;;;;4889433;29;20225;-78
2022/12/04 04:33:57;;;;;;;25.27;22.80;;;2.60;99.90;;;;;;4885521;29;20476;-79
2022/12/04 04:36:35;;;;;;;25.37;22.60;;;2.60;99.90;;;;;;4890337;29;20204;-78
2022/12/04 04:39:15;;;;;;;27.73;23.53;;;2.70;99.90;;;;;;4882889;29;20241;-77
2022/12/04 04:41:48;;;;;;;26.80;23.00;;;2.60;99.90;;;;;;4889786;29;20477;-77
2022/12/04 04:44:19;;;;;;;23.97;21.60;;;2.60;99.90;;;;;;4873379;29;20297;-78
2022/12/04 04:46:51;;;;;;;26.63;23.07;;;2.50;99.90;;;;;;4873206;29;20201;-80
2022/12/04 04:49:22;;;;;;;24.70;22.07;;;2.50;99.90;;;;;;4892423;29;20741;-82
2022/12/04 04:51:49;;;;;;;24.67;22.17;;;2.50;99.90;;;;;;4888085;29;20501;-82
2022/12/04 04:54:18;;;;;;;25.87;23.07;;;2.50;99.90;;;;;;4883357;29;20486;-78
2022/12/04 04:56:46;;;;;;;24.87;22.37;;;2.60;99.90;;;;;;4891646;29;20197;-78
2022/12/04 04:59:14;;;;;;;24.30;21.77;;;2.60;99.90;;;;;;4890107;29;20445;-79
2022/12/04 05:01:44;;;;;;;24.70;22.20;;;2.60;99.90;;;;;;4879110;29;20228;-79
2022/12/04 05:04:12;;;;;;;25.17;22.47;;;2.60;99.90;;;;;;4879358;29;20460;-80
2022/12/04 05:06:40;;;;;;;23.50;21.10;;;2.50;99.90;;;;;;4879488;29;20518;-79
2022/12/04 05:09:07;;;;;;;25.27;22.57;;;2.50;99.90;;;;;;4877625;29;20522;-79
2022/12/04 05:11:33;;;;;;;24.27;21.70;;;2.50;99.90;;;;;;4883918;29;20753;-82
2022/12/04 05:14:00;;;;;;;24.83;22.43;;;2.50;99.90;;;;;;4899333;29;20487;-80
2022/12/04 05:16:27;;;;;;;24.20;21.80;;;2.40;99.90;;;;;;4906244;29;20225;-81
2022/12/04 05:21:40;;;;;;;22.93;20.63;;;2.50;99.90;;;;;;4894044;29;20268;-83
2022/12/04 05:24:08;;;;;;;24.23;21.70;;;2.60;99.90;;;;;;4894602;29;20196;-79
2022/12/04 05:26:35;;;;;;;24.50;21.90;;;2.60;99.90;;;;;;4898957;29;20437;-78
2022/12/04 05:29:01;;;;;;;24.67;21.93;;;2.60;99.90;;;;;;4896014;29;20944;-79
2022/12/04 05:31:28;;;;;;;24.73;22.23;;;2.60;99.90;;;;;;4886521;29;20480;-77
2022/12/04 05:33:56;;;;;;;23.57;20.90;;;2.50;99.90;;;;;;4895937;29;20213;-78
2022/12/04 05:36:23;;;;;;;22.83;20.60;;;2.60;99.90;;;;;;4893339;29;20502;-78
2022/12/04 05:38:51;;;;;;;23.87;21.30;;;2.60;99.90;;;;;;4893372;29;20978;-78
2022/12/04 05:41:18;;;;;;;24.47;21.90;;;2.60;99.90;;;;;;4893608;29;20220;-77
2022/12/04 05:43:45;;;;;;;23.43;21.13;;;2.60;99.90;;;;;;4893014;29;20442;-78
2022/12/04 05:46:11;;;;;;;25.10;22.43;;;2.60;99.90;;;;;;4895404;29;20441;-77
2022/12/04 05:48:38;;;;;;;24.53;21.37;;;2.60;99.90;;;;;;4889618;29;20211;-78
2022/12/04 05:51:06;;;;;;;24.07;21.67;;;2.50;99.90;;;;;;4888899;29;20465;-78
2022/12/04 05:53:33;;;;;;;23.70;21.27;;;2.50;99.90;;;;;;4895440;29;20448;-78
2022/12/04 05:56:02;;;;;;;26.37;22.33;;;2.60;99.90;;;;;;4891838;29;20461;-79
2022/12/04 05:58:30;;;;;;;23.40;21.00;;;2.60;99.90;;;;;;4895700;29;20200;-79
2022/12/04 06:00:57;;;;;;;22.77;20.47;;;2.60;99.90;;;;;;4891699;29;20233;-78
2022/12/04 06:03:23;;;;;;;22.73;20.43;;;2.60;99.90;;;;;;4893275;29;20457;-78
2022/12/04 06:05:50;;;;;;;23.80;21.30;;;2.60;99.90;;;;;;4891199;29;20204;-78
2022/12/04 06:08:17;;;;;;;24.80;22.13;;;2.60;99.90;;;;;;4892843;29;20204;-79
2022/12/04 06:10:44;;;;;;;24.33;21.73;;;2.60;99.90;;;;;;4894023;29;20221;-78
2022/12/04 06:13:12;;;;;;;25.33;22.83;;;2.60;99.90;;;;;;4890479;29;20235;-77
2022/12/04 06:15:40;;;;;;;24.17;21.77;;;2.60;99.90;;;;;;4891350;29;20257;-78
2022/12/04 06:18:07;;;;;;;24.33;21.83;;;2.70;99.90;;;;;;4892273;29;20201;-77
2022/12/04 06:20:34;;;;;;;24.13;21.83;;;2.70;99.90;;;;;;4893276;29;20198;-76
2022/12/04 06:23:01;;;;;;;24.53;22.13;;;2.70;99.90;;;;;;4892112;29;20265;-78
2022/12/04 06:25:28;;;;;;;24.70;22.23;;;2.70;99.90;;;;;;4890014;29;20433;-80
2022/12/04 06:27:55;;;;;;;25.33;22.63;;;2.70;99.90;;;;;;4889955;29;20217;-77
2022/12/04 06:30:23;;;;;;;24.80;22.30;;;2.70;99.90;;;;;;4887894;29;20209;-78
2022/12/04 06:32:50;;;;;;;25.50;22.23;;;2.60;99.90;;;;;;4887383;29;20216;-78
2022/12/04 06:35:17;;;;;;;24.83;22.33;;;2.50;99.90;;;;;;4889068;29;20725;-78
2022/12/04 06:37:44;;;;;;;25.57;22.87;;;2.40;99.90;;;;;;4890287;29;20445;-76
2022/12/04 06:40:11;;;;;;;26.07;23.37;;;2.40;99.90;;;;;;4888792;29;20208;-79
2022/12/04 06:42:38;;;;;;;25.50;22.60;;;2.40;99.90;;;;;;4889618;29;20225;-78
2022/12/04 06:45:06;;;;;;;26.07;23.37;;;2.50;99.90;;;;;;4888809;29;20815;-78
2022/12/04 06:47:35;;;;;;;24.30;21.93;;;2.50;99.90;;;;;;4887453;29;20458;-77
2022/12/04 06:50:03;;;;;;;24.57;22.17;;;2.50;99.90;;;;;;4888364;29;20638;-78
2022/12/04 06:52:32;;;;;;;23.03;20.87;;;2.60;99.90;;;;;;4892856;29;20246;-78
2022/12/04 06:54:59;;;;;;;24.37;21.97;;;2.50;99.90;;;;;;4888634;29;20478;-79
2022/12/04 06:57:26;;;;;;;24.97;22.33;;;2.50;99.90;;;;;;4890860;29;20970;-78
2022/12/04 06:59:53;;;;;;;24.17;21.77;;;2.50;99.90;;;;;;4890450;29;20677;-78
2022/12/04 07:02:19;;;;;;;24.93;22.30;;;2.60;99.90;;;;;;4885598;29;20241;-78
2022/12/04 07:04:48;;;;;;;24.20;21.60;;;2.50;99.90;;;;;;4886227;29;20201;-77
2022/12/04 07:07:14;;;;;;;24.10;21.67;;;2.60;99.90;;;;;;4889882;29;20218;-78
2022/12/04 07:09:41;;;;;;;24.77;22.20;;;2.60;99.90;;;;;;4890668;29;20196;-78
2022/12/04 07:12:08;;;;;;;23.33;21.13;;;2.60;99.90;;;;;;4889055;29;20462;-77
2022/12/04 07:14:37;;;;;;;23.87;21.40;;;2.50;99.90;;;;;;4886461;29;21114;-86
2022/12/04 07:17:03;;;;;;;23.27;21.07;;;2.60;99.90;;;;;;4878472;29;20462;-82
2022/12/04 07:19:30;;;;;;;23.13;20.87;;;2.60;99.90;;;;;;4887735;29;20573;-77
2022/12/04 07:21:59;;;;;;;24.13;21.63;;;2.60;99.90;;;;;;4893117;29;20626;-81
2022/12/04 07:24:25;;;;;;;22.67;20.33;;;2.60;99.90;;;;;;4888533;29;20185;-81
2022/12/04 07:26:52;;;;;;;23.90;21.43;;;2.60;99.90;;;;;;4888462;29;20689;-81
2022/12/04 07:29:19;;;;;;;23.93;21.50;;;2.60;99.90;;;;;;4890400;29;20201;-82
2022/12/04 07:31:46;;;;;;;24.17;20.80;;;2.60;99.90;;;;;;4889070;29;20229;-79
2022/12/04 07:34:13;;;;;;;25.23;22.63;;;2.60;99.90;;;;;;4889844;29;20480;-77
2022/12/04 07:36:40;;;;;;;23.80;21.60;;;2.60;99.90;;;;;;4886987;29;20200;-79
2022/12/04 07:39:09;;;;;;;23.30;20.97;;;2.60;99.90;;;;;;4894378;29;20288;-82
2022/12/04 07:41:36;;;;;;;23.43;21.13;;;2.60;99.90;;;;;;4892068;29;20224;-79
2022/12/04 07:44:07;;;;;;;22.20;20.13;;;2.60;99.90;;;;;;4879802;29;20457;-80
2022/12/04 07:46:34;;;;;;;23.07;20.67;;;2.60;99.90;;;;;;4883510;29;20738;-80
2022/12/04 07:49:01;;;;;;;23.03;20.73;;;2.60;99.90;;;;;;4894170;29;20205;-78
2022/12/04 07:51:29;;;;;;;22.47;20.20;;;2.60;99.90;;;;;;4884234;29;20472;-79
2022/12/04 07:53:57;;;;;;;22.50;20.40;;;2.60;99.90;;;;;;4895470;29;20231;-76
2022/12/04 07:56:25;;;;;;;22.57;20.37;;;2.70;99.90;;;;;;4889248;29;20209;-79
2022/12/04 07:58:52;;;;;;;22.93;20.73;;;2.70;99.90;;;;;;4887568;29;20197;-78
2022/12/04 08:01:21;;;;;;;21.93;19.70;;;2.70;99.90;;;;;;4892636;29;20764;-79
2022/12/04 08:03:50;;;;;;;22.70;20.33;;;2.80;99.90;;;;;;4886695;29;20926;-79
2022/12/04 08:06:18;;;;;;;22.03;19.90;;;2.80;99.90;;;;;;4894874;29;20452;-79
2022/12/04 08:08:45;;;;;;;23.60;21.30;;;2.80;99.90;;;;;;4888539;29;20217;-79
2022/12/04 08:11:14;;;;;;;22.67;20.50;;;2.80;99.90;;;;;;4889512;29;20473;-79
2022/12/04 08:13:43;;;;;;;23.80;21.40;;;2.80;99.90;;;;;;4890888;29;20240;-79
2022/12/04 08:16:12;;;;;;;22.23;20.03;;;2.80;99.90;;;;;;4888215;29;20208;-78
2022/12/04 08:18:39;;;;;;;21.80;19.73;;;2.80;99.90;;;;;;4891917;29;20449;-78
2022/12/04 08:21:06;;;;;;;22.03;19.93;;;2.90;99.90;;;;;;4890507;29;20225;-78
2022/12/04 08:23:33;;;;;;;20.77;18.70;;;2.90;99.90;;;;;;4891545;29;20192;-79
2022/12/04 08:26:01;;;;;;;22.20;20.07;;;2.90;99.90;;;;;;4891564;29;20449;-79
2022/12/04 08:28:29;;;;;;;23.10;20.70;;;2.90;99.90;;;;;;4878448;29;20838;-77
2022/12/04 08:31:02;;;;;;;21.67;19.47;;;2.90;99.90;;;;;;4892582;29;20641;-77
2022/12/04 08:33:29;;;;;;;22.67;20.47;;;2.90;99.90;;;;;;4876770;29;20498;-83
2022/12/04 08:35:56;;;;;;;21.33;19.23;;;2.90;99.90;;;;;;4887401;29;20288;-83
2022/12/04 08:38:23;;;;;;;22.63;20.33;;;2.90;99.90;;;;;;4891215;29;20629;-79
2022/12/04 08:40:50;;;;;;;21.57;19.50;;;2.90;99.90;;;;;;4893378;29;20240;-79
2022/12/04 08:43:16;;;;;;;22.10;20.10;;;3.10;99.90;;;;;;4886939;29;20265;-79
2022/12/04 08:45:43;;;;;;;22.77;20.47;;;3.10;99.90;;;;;;4886550;29;20208;-79
2022/12/04 08:48:11;;;;;;;21.90;19.77;;;3.10;99.90;;;;;;4889101;29;20201;-79
2022/12/04 08:50:44;;;;;;;21.30;19.20;;;3.10;99.90;;;;;;4887252;29;20202;-78
2022/12/04 08:53:11;;;;;;;21.70;19.50;;;3.10;99.90;;;;;;4889948;29;20289;-78
2022/12/04 08:55:38;;;;;;;21.77;19.47;;;3.10;99.90;;;;;;4883279;29;20212;-80
2022/12/04 08:58:05;;;;;;;21.30;19.20;;;3.10;99.90;;;;;;4886381;29;20682;-77
2022/12/04 09:00:32;;;;;;;20.73;18.83;;;3.20;99.90;;;;;;4890498;29;20210;-77
2022/12/04 09:02:58;;;;;;;21.03;19.03;;;3.20;99.90;;;;;;4889403;29;20208;-77
2022/12/04 09:05:27;;;;;;;22.27;20.27;;;3.20;99.90;;;;;;4890876;29;20580;-78
2022/12/04 09:07:54;;;;;;;22.47;20.20;;;3.20;99.90;;;;;;4880644;29;20297;-79
2022/12/04 09:10:21;;;;;;;22.63;20.47;;;3.20;99.90;;;;;;4867781;29;20213;-78
2022/12/04 09:12:47;;;;;;;21.23;19.23;;;3.20;99.90;;;;;;4858842;29;20221;-79
2022/12/04 09:15:14;;;;;;;23.37;21.07;;;3.20;99.90;;;;;;4878397;29;20227;-79
2022/12/04 09:17:41;;;;;;;23.20;20.87;;;3.10;99.90;;;;;;4876632;29;20697;-78
2022/12/04 09:20:09;;;;;;;22.60;20.37;;;3.10;99.90;;;;;;4880989;29;20217;-79
2022/12/04 09:22:38;;;;;;;22.50;20.23;;;3.20;99.90;;;;;;4878015;29;20248;-79
2022/12/04 09:25:06;;;;;;;21.20;19.20;;;3.20;99.90;;;;;;4874188;29;20234;-80
2022/12/04 09:27:36;;;;;;;22.97;20.60;;;3.20;99.90;;;;;;4871745;29;20229;-79
2022/12/04 09:30:04;;;;;;;20.63;18.63;;;3.20;99.90;;;;;;4871676;29;20285;-78
2022/12/04 09:32:31;;;;;;;20.47;18.63;;;3.30;99.90;;;;;;4867302;29;20222;-80
2022/12/04 09:34:58;;;;;;;22.53;20.27;;;3.40;99.90;;;;;;4885026;29;20315;-79
2022/12/04 09:37:25;;;;;;;20.80;18.70;;;3.40;99.90;;;;;;4878404;29;20738;-79
2022/12/04 09:39:53;;;;;;;20.50;18.60;;;3.50;99.90;;;;;;4879654;29;20197;-79
2022/12/04 09:42:34;;;;;;;22.03;19.73;;;3.50;99.90;;;;;;4881888;29;20240;-83
2022/12/04 09:45:05;;;;;;;22.83;20.50;;;3.50;99.90;;;;;;4882307;29;20217;-82
2022/12/04 09:47:36;;;;;;;22.17;19.97;;;3.50;99.90;;;;;;4874920;29;20224;-78
2022/12/04 09:50:10;;;;;;;22.07;19.93;;;3.40;99.90;;;;;;4874158;29;20239;-83
2022/12/04 09:52:46;;;;;;;21.07;19.17;;;3.40;99.90;;;;;;4873520;29;20728;-79
2022/12/04 09:55:19;;;;;;;22.03;19.93;;;3.40;99.90;;;;;;4883949;29;20229;-77
2022/12/04 09:57:49;;;;;;;23.23;20.80;;;3.40;99.90;;;;;;4868037;29;20205;-77
2022/12/04 10:00:18;;;;;;;21.50;19.50;;;3.40;99.90;;;;;;4874903;29;20201;-80
2022/12/04 10:02:49;;;;;;;21.73;19.53;;;3.40;99.90;;;;;;4877239;29;20240;-77
2022/12/04 10:05:18;;;;;;;22.40;20.17;;;3.40;99.90;;;;;;4880610;29;20670;-80
2022/12/04 10:07:50;;;;;;;21.10;19.00;;;3.40;99.90;;;;;;4881570;29;20671;-77
2022/12/04 10:10:26;;;;;;;21.90;19.80;;;3.40;99.90;;;;;;4882255;29;20627;-77
2022/12/04 10:13:01;;;;;;;21.67;19.67;;;3.40;99.90;;;;;;4882418;29;20201;-79
2022/12/04 10:15:35;;;;;;;22.57;20.17;;;3.40;99.90;;;;;;4870089;29;20212;-78
2022/12/04 10:18:19;;;;;;;21.83;19.83;;;3.40;99.90;;;;;;4881770;29;20405;-81
2022/12/04 10:21:03;;;;;;;23.40;20.97;;;3.40;99.90;;;;;;4870964;29;20229;-81
2022/12/04 10:23:43;;;;;;;24.43;21.93;;;3.50;99.90;;;;;;4869528;29;20205;-81
2022/12/04 10:26:16;;;;;;;23.77;21.43;;;3.50;99.90;;;;;;4889598;29;20200;-81
2022/12/04 10:28:47;;;;;;;22.97;20.67;;;3.40;99.90;;;;;;4892900;29;20207;-80
2022/12/04 10:31:15;;;;;;;23.95;21.73;;;3.50;99.90;;;;;;4893066;29;20438;-81
2022/12/04 10:33:48;;;;;;;23.13;20.83;;;3.50;99.90;;;;;;4893365;29;20209;-82
2022/12/04 10:36:17;;;;;;;22.90;20.50;;;3.50;99.90;;;;;;4884768;29;20237;-82
2022/12/04 10:38:47;;;;;;;22.70;20.50;;;3.50;99.90;;;;;;4882155;29;20682;-82
2022/12/04 10:41:21;;;;;;;22.70;20.30;;;3.50;99.90;;;;;;4882067;29;20230;-83
2022/12/04 10:43:49;;;;;;;22.80;20.57;;;3.40;99.90;;;;;;4884984;29;20725;-82
2022/12/04 10:46:22;;;;;;;23.77;21.27;;;3.40;99.90;;;;;;4892238;29;20201;-81
2022/12/04 10:48:52;;;;;;;23.77;21.37;;;3.40;99.90;;;;;;4890766;29;20248;-82
2022/12/04 10:51:21;;;;;;;23.77;20.50;;;3.40;99.90;;;;;;4892555;29;20273;-80
2022/12/04 10:53:49;;;;;;;23.80;21.30;;;3.50;99.90;;;;;;4892798;29;20208;-80
2022/12/04 10:56:20;;;;;;;23.87;21.37;;;3.50;99.90;;;;;;4884900;29;20307;-80
2022/12/04 10:58:57;;;;;;;24.10;21.58;;;3.50;99.90;;;;;;4885345;29;20836;-82
2022/12/04 11:01:25;;;;;;;24.27;21.77;;;3.50;99.90;;;;;;4891466;29;20751;-82
2022/12/04 11:04:00;;;;;;;24.57;21.97;;;3.40;99.90;;;;;;4889379;29;20209;-82
2022/12/04 11:06:27;;;;;;;24.73;22.13;;;3.40;99.90;;;;;;4889625;29;20257;-81
2022/12/04 11:08:55;;;;;;;25.00;22.43;;;3.40;99.90;;;;;;4885526;29;20198;-80
2022/12/04 11:11:29;;;;;;;24.30;21.77;;;3.40;99.90;;;;;;4892555;29;20333;-81
2022/12/04 11:14:07;;;;;;;27.43;22.97;;;3.40;99.90;;;;;;4891777;29;20196;-82
2022/12/04 11:16:38;;;;;;;24.50;22.07;;;3.30;99.90;;;;;;4881028;29;20225;-81
2022/12/04 11:19:19;;;;;;;24.93;22.37;;;3.30;99.90;;;;;;4884909;29;20208;-81
2022/12/04 11:21:46;;;;;;;26.73;23.70;;;3.30;99.90;;;;;;4887069;29;20277;-82
2022/12/04 11:24:20;;;;;;;26.43;23.63;;;3.40;99.90;;;;;;4891856;29;20209;-82
2022/12/04 11:26:50;;;;;;;25.50;23.00;;;3.30;99.90;;;;;;4892161;29;20197;-79
2022/12/04 11:29:19;;;;;;;27.47;22.67;;;3.30;99.90;;;;;;4894418;29;20202;-84
2022/12/04 11:31:51;;;;;;;25.97;22.13;;;3.40;99.90;;;;;;4889800;29;20248;-81
2022/12/04 11:34:21;;;;;;;23.60;21.13;;;3.50;99.90;;;;;;4889889;29;20212;-81
2022/12/04 11:36:53;;;;;;;26.00;23.20;;;3.50;99.90;;;;;;4887182;29;20233;-82
2022/12/04 11:39:32;;;;;;;23.77;21.37;;;3.50;99.90;;;;;;4884571;29;20575;-81
2022/12/04 11:42:03;;;;;;;23.40;21.00;;;3.50;99.90;;;;;;4890993;29;20228;-81
2022/12/04 11:44:32;;;;;;;24.03;21.60;;;3.60;99.90;;;;;;4880558;29;20649;-81
2022/12/04 11:47:01;;;;;;;24.03;21.40;;;3.70;99.90;;;;;;4885948;29;20208;-81
2022/12/04 11:49:30;;;;;;;26.60;22.60;;;3.70;99.90;;;;;;4881304;29;20579;-82
2022/12/04 11:52:08;;;;;;;25.77;22.37;;;3.60;99.90;;;;;;4873744;29;20225;-81
2022/12/04 11:54:43;;;;;;;25.97;22.23;;;3.60;99.90;;;;;;4876651;29;20211;-81
2022/12/04 11:57:23;;;;;;;25.40;22.70;;;3.50;99.90;;;;;;4889416;29;20236;-81
2022/12/04 12:00:01;;;;;;;23.67;21.13;;;3.60;99.90;;;;;;4889986;29;20211;-79
2022/12/04 12:02:39;;;;;;;24.83;22.13;;;3.60;99.90;;;;;;4880987;29;20233;-81
2022/12/04 12:05:26;;;;;;;24.87;22.10;;;3.60;99.90;;;;;;4886358;29;20284;-81
2022/12/04 12:08:06;;;;;;;25.63;22.93;;;3.60;99.90;;;;;;4890456;29;20718;-80
2022/12/04 12:10:39;;;;;;;25.10;21.90;;;3.60;99.90;;;;;;4881092;29;20200;-81
2022/12/04 12:13:16;;;;;;;26.00;21.90;;;3.60;99.90;;;;;;4891163;29;20224;-78
2022/12/04 12:15:51;;;;;;;26.43;23.60;;;3.70;99.90;;;;;;4892399;29;20257;-82
2022/12/04 12:18:31;;;;;;;25.13;22.30;;;3.60;99.90;;;;;;4878547;29;20200;-81
2022/12/04 12:21:06;;;;;;;23.87;21.37;;;3.60;99.90;;;;;;4890965;29;20224;-83
2022/12/04 12:23:59;;;;;;;24.60;22.00;;;3.60;99.90;;;;;;4885338;29;20253;-77
2022/12/04 12:26:37;;;;;;;26.10;23.40;;;3.60;99.90;;;;;;4890164;29;20197;-79
2022/12/04 12:29:16;;;;;;;24.23;21.73;;;3.60;99.90;;;;;;4877403;29;20216;-83
2022/12/04 12:31:59;;;;;;;27.93;23.37;;;3.60;99.90;;;;;;4892118;29;20227;-82
2022/12/04 12:34:36;;;;;;;27.90;23.10;;;3.60;99.90;;;;;;4890516;29;20208;-83
2022/12/04 12:37:13;;;;;;;27.03;23.07;;;3.60;99.90;;;;;;4892507;29;20321;-83
2022/12/04 12:39:42;;;;;;;26.27;23.23;;;3.60;99.90;;;;;;4891764;29;20216;-82
2022/12/04 12:42:17;;;;;;;25.50;22.30;;;3.60;99.90;;;;;;4888512;29;20644;-82
2022/12/04 12:44:53;;;;;;;26.23;23.50;;;3.80;99.90;;;;;;4894924;29;20279;-81
2022/12/04 12:47:23;;;;;;;24.10;21.50;;;3.80;99.90;;;;;;4882500;29;20646;-82
2022/12/04 12:49:57;;;;;;;24.20;21.80;;;3.90;99.90;;;;;;4890016;29;20291;-82
2022/12/04 12:52:30;;;;;;;25.23;22.63;;;3.90;99.90;;;;;;4888065;29;20216;-80
2022/12/04 12:55:02;;;;;;;26.07;23.03;;;3.90;99.90;;;;;;4868660;29;20285;-79
2022/12/04 12:57:34;;;;;;;24.63;22.20;;;3.80;99.90;;;;;;4864142;29;20201;-82
2022/12/04 13:00:13;;;;;;;26.77;22.43;;;3.80;99.90;;;;;;4875048;29;20216;-82
2022/12/04 13:02:47;;;;;;;25.80;23.00;;;3.90;99.90;;;;;;4870174;29;20753;-83
2022/12/04 13:05:18;;;;;;;26.30;23.47;;;3.80;99.90;;;;;;4873289;29;20205;-81
2022/12/04 13:07:51;;;;;;;25.20;22.57;;;3.70;99.90;;;;;;4891518;29;20205;-82
2022/12/04 13:10:22;;;;;;;25.17;22.50;;;3.70;99.90;;;;;;4888565;29;20651;-82
2022/12/04 13:12:54;;;;;;;24.57;21.97;;;3.60;99.90;;;;;;4889478;29;20228;-81
2022/12/04 13:15:26;;;;;;;25.03;22.43;;;3.60;99.90;;;;;;4888955;29;20210;-81
2022/12/04 13:17:55;;;;;;;24.73;22.20;;;3.60;99.90;;;;;;4889283;29;20197;-80
2022/12/04 13:20:26;;;;;;;25.77;22.97;;;3.60;99.90;;;;;;4890176;29;20204;-82
2022/12/04 13:23:12;;;;;;;24.10;21.60;;;3.70;99.90;;;;;;4889448;29;20201;-83
2022/12/04 13:25:56;;;;;;;24.83;22.27;;;3.70;99.90;;;;;;4882285;29;20630;-82
2022/12/04 13:28:37;;;;;;;24.20;21.67;;;3.80;99.90;;;;;;4888480;29;20574;-82
2022/12/04 13:31:19;;;;;;;24.43;21.93;;;3.80;99.90;;;;;;4892144;29;20311;-83
2022/12/04 13:34:30;;;;;;;25.27;22.77;;;3.80;99.90;;;;;;4889519;29;20248;-82
2022/12/04 13:37:12;;;;;;;23.40;21.10;;;3.80;99.90;;;;;;4866208;29;20725;-82
2022/12/04 13:40:26;;;;;;;24.57;21.93;;;3.80;99.90;;;;;;4890633;29;20224;-77
2022/12/04 13:42:53;;;;;;;23.57;21.27;;;3.70;99.90;;;;;;4885916;29;20212;-83
2022/12/04 13:45:27;;;;;;;25.57;22.93;;;3.70;99.90;;;;;;4892691;29;20275;-81
2022/12/04 13:47:59;;;;;;;24.70;22.33;;;3.70;99.90;;;;;;4894086;29;20212;-81
2022/12/04 13:50:29;;;;;;;25.13;22.60;;;3.60;99.90;;;;;;4893475;29;20205;-82
2022/12/04 13:52:56;;;;;;;26.57;23.97;;;3.70;99.90;;;;;;4895123;29;20581;-79
2022/12/04 13:55:30;;;;;;;28.53;24.70;;;3.70;99.90;;;;;;4887540;29;20200;-81
2022/12/04 13:57:59;;;;;;;26.63;23.80;;;3.60;99.90;;;;;;4882060;29;20206;-82
2022/12/04 14:00:30;;;;;;;27.00;24.07;;;3.70;99.90;;;;;;4891887;29;20192;-82
2022/12/04 14:03:02;;;;;;;27.50;24.70;;;3.60;99.90;;;;;;4891479;29;20655;-79
2022/12/04 14:05:33;;;;;;;30.20;25.93;;;3.50;99.90;;;;;;4885252;29;20214;-82
2022/12/04 14:08:05;;;;;;;28.37;25.20;;;3.60;99.90;;;;;;4889845;29;20219;-81
2022/12/04 14:10:36;;;;;;;26.40;23.70;;;3.50;99.90;;;;;;4889115;29;20240;-77
2022/12/04 14:13:06;;;;;;;27.30;24.50;;;3.60;99.90;;;;;;4893086;29;20678;-82
2022/12/04 14:15:35;;;;;;;27.43;24.67;;;3.60;99.90;;;;;;4888416;29;20201;-80
2022/12/04 14:18:24;;;;;;;25.77;23.17;;;3.70;99.90;;;;;;4880362;29;20217;-80
2022/12/04 14:20:58;;;;;;;27.50;23.73;;;3.70;99.90;;;;;;4891547;29;20224;-81
2022/12/04 14:23:33;;;;;;;28.70;25.67;;;3.70;99.90;;;;;;4890134;29;20734;-81
2022/12/04 14:26:02;;;;;;;27.73;24.90;;;3.70;99.90;;;;;;4896978;29;20192;-80
2022/12/04 14:28:41;;;;;;;28.30;25.40;;;3.70;99.90;;;;;;4884887;29;20197;-81
2022/12/04 14:31:30;;;;;;;29.63;26.43;;;3.60;99.90;;;;;;4892568;29;20217;-77
2022/12/04 14:34:01;;;;;;;28.73;24.97;;;3.60;99.90;;;;;;4893637;29;20206;-78
2022/12/04 14:36:30;;;;;;;29.43;26.23;;;3.70;99.90;;;;;;4896419;29;20679;-80
2022/12/04 14:39:05;;;;;;;29.57;25.63;;;3.70;99.90;;;;;;4892009;29;20406;-81
2022/12/04 14:41:32;;;;;;;37.87;31.43;;;3.60;99.90;;;;;;4881151;29;20220;-80
2022/12/04 14:43:59;;;;;;;83.33;51.70;;;3.60;99.90;;;;;;4893902;29;20209;-80
2022/12/04 14:46:40;;;;;;;82.97;51.97;;;3.60;99.90;;;;;;4892317;29;20221;-81
2022/12/04 14:49:27;;;;;;;54.23;36.43;;;3.60;99.90;;;;;;4890136;29;20283;-81
2022/12/04 14:52:01;;;;;;;42.17;32.20;;;3.60;99.90;;;;;;4892597;29;20260;-81
2022/12/04 14:54:34;;;;;;;36.23;29.77;;;3.50;99.90;;;;;;4887730;29;20212;-81
2022/12/04 14:57:17;;;;;;;33.03;28.63;;;3.60;99.90;;;;;;4892927;29;20217;-78
2022/12/04 14:59:46;;;;;;;30.17;26.33;;;3.50;99.90;;;;;;4889257;29;20201;-77
2022/12/04 15:02:17;;;;;;;29.17;26.07;;;3.50;99.90;;;;;;4891037;29;20228;-79
2022/12/04 15:04:47;;;;;;;31.17;25.73;;;3.60;99.90;;;;;;4892433;29;20201;-79
2022/12/04 15:07:19;;;;;;;29.17;26.00;;;3.60;99.90;;;;;;4879626;29;20193;-80
2022/12/04 15:12:41;;;;;;;30.83;27.57;;;3.60;99.90;;;;;;4881734;29;20220;-78
2022/12/04 15:15:16;;;;;;;30.37;27.17;;;3.60;99.90;;;;;;4882799;29;20216;-79
2022/12/04 15:17:43;;;;;;;32.57;28.40;;;3.60;99.90;;;;;;4882360;29;20217;-80
2022/12/04 15:20:19;;;;;;;34.73;28.47;;;3.60;99.90;;;;;;4881262;29;20202;-80
2022/12/04 15:22:47;;;;;;;35.03;28.37;;;3.60;99.90;;;;;;4886385;29;20263;-79
2022/12/04 15:25:20;;;;;;;35.20;28.93;;;3.50;99.90;;;;;;4886730;29;20193;-76
2022/12/04 15:27:50;;;;;;;34.30;29.13;;;3.50;99.90;;;;;;4883745;29;20205;-80
2022/12/04 15:30:20;;;;;;;35.33;28.53;;;3.50;99.90;;;;;;4871456;29;20217;-76
2022/12/04 15:32:50;;;;;;;36.43;28.77;;;3.50;99.90;;;;;;4877420;29;20228;-79
2022/12/04 15:35:25;;;;;;;34.73;29.37;;;3.50;99.90;;;;;;4879071;29;20249;-77
2022/12/04 15:37:52;;;;;;;36.73;28.90;;;3.40;99.90;;;;;;4880256;29;20216;-77
2022/12/04 15:40:22;;;;;;;31.20;27.37;;;3.50;99.90;;;;;;4880431;29;20694;-77
2022/12/04 15:42:50;;;;;;;35.90;29.07;;;3.40;99.90;;;;;;4861154;29;20202;-77
2022/12/04 15:45:28;;;;;;;32.23;28.20;;;3.40;99.90;;;;;;4861694;29;20198;-77
2022/12/04 15:47:57;;;;;;;34.00;28.73;;;3.40;99.90;;;;;;4861883;29;20205;-78
2022/12/04 15:50:27;;;;;;;34.50;28.17;;;3.30;99.90;;;;;;4865050;29;20190;-78
2022/12/04 15:52:59;;;;;;;32.83;27.30;;;3.30;99.90;;;;;;4864831;29;20202;-77
2022/12/04 15:55:29;;;;;;;35.33;29.07;;;3.30;99.90;;;;;;4864769;29;20261;-77
2022/12/04 15:57:58;;;;;;;33.47;28.13;;;3.30;99.90;;;;;;4862484;29;20233;-78
2022/12/04 16:00:29;;;;;;;29.97;26.60;;;3.30;99.90;;;;;;4875774;29;20227;-77
2022/12/04 16:02:58;;;;;;;33.67;28.43;;;3.40;99.90;;;;;;4883115;29;20284;-80
2022/12/04 16:05:33;;;;;;;32.73;28.13;;;3.40;99.90;;;;;;4877686;29;20197;-78
2022/12/04 16:08:03;;;;;;;34.90;28.03;;;3.40;99.90;;;;;;4886422;29;20266;-78
2022/12/04 16:10:32;;;;;;;36.47;28.70;;;3.40;99.90;;;;;;4889820;29;20267;-77
2022/12/04 16:13:01;;;;;;;32.30;28.27;;;3.30;99.90;;;;;;4890309;29;20201;-78